Terminal Aerodrome Forecast
Issued by NWS

Current Version | Previous Version | Text Only | Print | Product List | Glossary On
Versions: 1 2 3 4 5 6 7 8 9 10 11 12 13
130
FTUS42 KMLB 261739
TAFLEE
TAF
KLEE 261739Z 2618/2718 08008KT P6SM VCSH FEW040 FEW050
      TEMPO 2618/2622 4SM SHRA BKN025
     FM270100 12009KT P6SM SCT025 OVC070
     FM270800 13011KT P6SM VCSH SCT020 OVC070
     FM271400 14015G22KT P6SM -RA SCT020 BKN035=

USA.gov is the U.S. government's official web portal to all federal, state and local government web resources and services.